sensor_id;sensor_type;location;lat;lon;timestamp;P1;durP1;ratioP1;P2;durP2;ratioP2
37383;SDS011;23258;49.718;11.082;2023-03-17T00:02:10;1.43;;;1.40;;
37383;SDS011;23258;49.718;11.082;2023-03-17T00:04:40;1.23;;;1.23;;
37383;SDS011;23258;49.718;11.082;2023-03-17T00:07:09;1.60;;;1.50;;
37383;SDS011;23258;49.718;11.082;2023-03-17T00:09:45;1.80;;;1.70;;
37383;SDS011;23258;49.718;11.082;2023-03-17T00:12:15;1.52;;;1.42;;
37383;SDS011;23258;49.718;11.082;2023-03-17T00:14:46;1.57;;;1.47;;
37383;SDS011;23258;49.718;11.082;2023-03-17T00:17:16;1.83;;;1.73;;
37383;SDS011;23258;49.718;11.082;2023-03-17T00:19:45;1.87;;;1.77;;
37383;SDS011;23258;49.718;11.082;2023-03-17T00:22:15;1.50;;;1.50;;
37383;SDS011;23258;49.718;11.082;2023-03-17T00:24:50;1.20;;;1.10;;
37383;SDS011;23258;49.718;11.082;2023-03-17T00:27:20;3.33;;;1.73;;
37383;SDS011;23258;49.718;11.082;2023-03-17T00:29:49;1.17;;;1.10;;
37383;SDS011;23258;49.718;11.082;2023-03-17T00:32:19;3.33;;;1.57;;
37383;SDS011;23258;49.718;11.082;2023-03-17T00:34:50;1.43;;;1.33;;
37383;SDS011;23258;49.718;11.082;2023-03-17T00:37:19;1.20;;;1.20;;
37383;SDS011;23258;49.718;11.082;2023-03-17T00:39:52;2.00;;;1.90;;
37383;SDS011;23258;49.718;11.082;2023-03-17T00:42:24;1.87;;;1.23;;
37383;SDS011;23258;49.718;11.082;2023-03-17T00:44:54;1.20;;;1.20;;
37383;SDS011;23258;49.718;11.082;2023-03-17T00:47:23;1.30;;;1.20;;
37383;SDS011;23258;49.718;11.082;2023-03-17T00:49:53;1.33;;;1.23;;
37383;SDS011;23258;49.718;11.082;2023-03-17T00:52:22;1.37;;;1.30;;
37383;SDS011;23258;49.718;11.082;2023-03-17T00:54:55;2.00;;;1.13;;
37383;SDS011;23258;49.718;11.082;2023-03-17T00:57:25;1.48;;;1.45;;
37383;SDS011;23258;49.718;11.082;2023-03-17T00:59:56;1.93;;;1.73;;
37383;SDS011;23258;49.718;11.082;2023-03-17T01:02:26;1.35;;;1.30;;
37383;SDS011;23258;49.718;11.082;2023-03-17T01:04:58;1.50;;;1.40;;
37383;SDS011;23258;49.718;11.082;2023-03-17T01:07:32;1.75;;;1.65;;
37383;SDS011;23258;49.718;11.082;2023-03-17T01:10:05;1.38;;;1.20;;
37383;SDS011;23258;49.718;11.082;2023-03-17T01:12:39;2.83;;;1.50;;
37383;SDS011;23258;49.718;11.082;2023-03-17T01:15:10;1.33;;;1.30;;
37383;SDS011;23258;49.718;11.082;2023-03-17T01:17:40;1.13;;;1.13;;
37383;SDS011;23258;49.718;11.082;2023-03-17T01:20:13;1.47;;;1.37;;
37383;SDS011;23258;49.718;11.082;2023-03-17T01:22:44;1.92;;;1.52;;
37383;SDS011;23258;49.718;11.082;2023-03-17T01:25:16;1.52;;;1.42;;
37383;SDS011;23258;49.718;11.082;2023-03-17T01:27:46;1.33;;;1.25;;
37383;SDS011;23258;49.718;11.082;2023-03-17T01:30:23;1.10;;;1.10;;
37383;SDS011;23258;49.718;11.082;2023-03-17T01:32:54;1.73;;;1.58;;
37383;SDS011;23258;49.718;11.082;2023-03-17T01:35:25;1.40;;;1.27;;
37383;SDS011;23258;49.718;11.082;2023-03-17T01:37:55;1.50;;;1.40;;
37383;SDS011;23258;49.718;11.082;2023-03-17T01:40:29;1.27;;;1.17;;
37383;SDS011;23258;49.718;11.082;2023-03-17T01:43:01;2.83;;;1.63;;
37383;SDS011;23258;49.718;11.082;2023-03-17T01:48:17;1.70;;;1.60;;
37383;SDS011;23258;49.718;11.082;2023-03-17T01:50:47;2.27;;;1.43;;
37383;SDS011;23258;49.718;11.082;2023-03-17T01:53:19;1.27;;;1.20;;
37383;SDS011;23258;49.718;11.082;2023-03-17T01:55:51;1.10;;;1.10;;
37383;SDS011;23258;49.718;11.082;2023-03-17T01:58:22;1.60;;;1.50;;
37383;SDS011;23258;49.718;11.082;2023-03-17T02:00:52;1.63;;;1.53;;
37383;SDS011;23258;49.718;11.082;2023-03-17T02:03:22;1.42;;;1.33;;
37383;SDS011;23258;49.718;11.082;2023-03-17T02:05:53;1.10;;;1.10;;
37383;SDS011;23258;49.718;11.082;2023-03-17T02:08:23;2.92;;;1.40;;
37383;SDS011;23258;49.718;11.082;2023-03-17T02:10:55;1.57;;;1.47;;
37383;SDS011;23258;49.718;11.082;2023-03-17T02:13:26;1.50;;;1.50;;
37383;SDS011;23258;49.718;11.082;2023-03-17T02:15:55;1.83;;;1.65;;
37383;SDS011;23258;49.718;11.082;2023-03-17T02:18:26;1.67;;;1.58;;
37383;SDS011;23258;49.718;11.082;2023-03-17T02:23:46;1.80;;;1.70;;
37383;SDS011;23258;49.718;11.082;2023-03-17T02:26:16;2.10;;;1.20;;
37383;SDS011;23258;49.718;11.082;2023-03-17T02:28:46;1.43;;;1.33;;
37383;SDS011;23258;49.718;11.082;2023-03-17T02:31:17;1.87;;;1.77;;
37383;SDS011;23258;49.718;11.082;2023-03-17T02:33:46;1.25;;;1.17;;
37383;SDS011;23258;49.718;11.082;2023-03-17T02:36:16;1.50;;;1.50;;
37383;SDS011;23258;49.718;11.082;2023-03-17T02:38:48;4.47;;;1.43;;
37383;SDS011;23258;49.718;11.082;2023-03-17T02:41:18;1.60;;;1.50;;
37383;SDS011;23258;49.718;11.082;2023-03-17T02:43:48;2.10;;;2.00;;
37383;SDS011;23258;49.718;11.082;2023-03-17T02:46:19;1.83;;;1.73;;
37383;SDS011;23258;49.718;11.082;2023-03-17T02:48:49;1.43;;;1.43;;
37383;SDS011;23258;49.718;11.082;2023-03-17T02:51:19;2.00;;;1.37;;
37383;SDS011;23258;49.718;11.082;2023-03-17T02:53:51;1.30;;;1.30;;
37383;SDS011;23258;49.718;11.082;2023-03-17T02:56:21;1.23;;;1.23;;
37383;SDS011;23258;49.718;11.082;2023-03-17T02:58:50;1.83;;;1.60;;
37383;SDS011;23258;49.718;11.082;2023-03-17T03:01:20;1.80;;;1.70;;
37383;SDS011;23258;49.718;11.082;2023-03-17T03:03:49;1.50;;;1.40;;
37383;SDS011;23258;49.718;11.082;2023-03-17T03:06:19;1.63;;;1.53;;
37383;SDS011;23258;49.718;11.082;2023-03-17T03:08:51;1.00;;;1.00;;
37383;SDS011;23258;49.718;11.082;2023-03-17T03:11:21;1.98;;;1.67;;
37383;SDS011;23258;49.718;11.082;2023-03-17T03:13:52;1.75;;;1.65;;
37383;SDS011;23258;49.718;11.082;2023-03-17T03:16:21;1.37;;;1.37;;
37383;SDS011;23258;49.718;11.082;2023-03-17T03:18:51;2.00;;;1.73;;
37383;SDS011;23258;49.718;11.082;2023-03-17T03:21:20;1.80;;;1.53;;
37383;SDS011;23258;49.718;11.082;2023-03-17T03:23:53;0.90;;;0.90;;
37383;SDS011;23258;49.718;11.082;2023-03-17T03:26:22;2.10;;;1.50;;
37383;SDS011;23258;49.718;11.082;2023-03-17T03:28:52;1.60;;;1.50;;
37383;SDS011;23258;49.718;11.082;2023-03-17T03:31:22;3.17;;;1.60;;
37383;SDS011;23258;49.718;11.082;2023-03-17T03:33:52;1.90;;;1.42;;
37383;SDS011;23258;49.718;11.082;2023-03-17T03:36:21;1.75;;;1.45;;
37383;SDS011;23258;49.718;11.082;2023-03-17T03:38:54;1.30;;;1.23;;
37383;SDS011;23258;49.718;11.082;2023-03-17T03:41:25;2.20;;;1.45;;
37383;SDS011;23258;49.718;11.082;2023-03-17T03:43:54;1.63;;;1.53;;
37383;SDS011;23258;49.718;11.082;2023-03-17T03:46:24;1.55;;;1.45;;
37383;SDS011;23258;49.718;11.082;2023-03-17T03:48:54;1.42;;;1.33;;
37383;SDS011;23258;49.718;11.082;2023-03-17T03:51:24;1.10;;;1.10;;
37383;SDS011;23258;49.718;11.082;2023-03-17T03:53:56;1.70;;;1.60;;
37383;SDS011;23258;49.718;11.082;2023-03-17T03:56:26;1.25;;;1.25;;
37383;SDS011;23258;49.718;11.082;2023-03-17T03:58:56;1.98;;;1.77;;
37383;SDS011;23258;49.718;11.082;2023-03-17T04:01:26;1.47;;;1.33;;
37383;SDS011;23258;49.718;11.082;2023-03-17T04:03:56;2.63;;;1.50;;
37383;SDS011;23258;49.718;11.082;2023-03-17T04:06:25;1.48;;;1.38;;
37383;SDS011;23258;49.718;11.082;2023-03-17T04:08:57;1.60;;;1.50;;
37383;SDS011;23258;49.718;11.082;2023-03-17T04:11:27;1.47;;;1.37;;
37383;SDS011;23258;49.718;11.082;2023-03-17T04:13:57;2.37;;;1.53;;
37383;SDS011;23258;49.718;11.082;2023-03-17T04:16:27;2.13;;;1.60;;
37383;SDS011;23258;49.718;11.082;2023-03-17T04:18:57;1.27;;;1.23;;
37383;SDS011;23258;49.718;11.082;2023-03-17T04:21:27;1.17;;;1.17;;
37383;SDS011;23258;49.718;11.082;2023-03-17T04:23:59;1.10;;;1.10;;
37383;SDS011;23258;49.718;11.082;2023-03-17T04:26:30;1.60;;;1.50;;
37383;SDS011;23258;49.718;11.082;2023-03-17T04:29:00;1.90;;;1.48;;
37383;SDS011;23258;49.718;11.082;2023-03-17T04:31:29;1.40;;;1.30;;
37383;SDS011;23258;49.718;11.082;2023-03-17T04:33:59;1.93;;;1.53;;
37383;SDS011;23258;49.718;11.082;2023-03-17T04:36:28;1.50;;;1.40;;
37383;SDS011;23258;49.718;11.082;2023-03-17T04:39:00;2.33;;;1.67;;
37383;SDS011;23258;49.718;11.082;2023-03-17T04:41:30;1.80;;;1.17;;
37383;SDS011;23258;49.718;11.082;2023-03-17T04:43:59;1.17;;;1.10;;
37383;SDS011;23258;49.718;11.082;2023-03-17T04:46:29;1.40;;;1.30;;
37383;SDS011;23258;49.718;11.082;2023-03-17T04:48:59;1.30;;;1.30;;
37383;SDS011;23258;49.718;11.082;2023-03-17T04:51:29;2.37;;;1.23;;
37383;SDS011;23258;49.718;11.082;2023-03-17T04:54:01;1.53;;;1.43;;
37383;SDS011;23258;49.718;11.082;2023-03-17T04:56:31;1.17;;;1.17;;
37383;SDS011;23258;49.718;11.082;2023-03-17T04:59:01;1.23;;;1.23;;
37383;SDS011;23258;49.718;11.082;2023-03-17T05:01:31;2.63;;;1.27;;
37383;SDS011;23258;49.718;11.082;2023-03-17T05:04:04;2.10;;;1.83;;
37383;SDS011;23258;49.718;11.082;2023-03-17T05:06:36;1.27;;;1.17;;
37383;SDS011;23258;49.718;11.082;2023-03-17T05:09:08;1.07;;;1.00;;
37383;SDS011;23258;49.718;11.082;2023-03-17T05:11:38;1.10;;;0.97;;
37383;SDS011;23258;49.718;11.082;2023-03-17T05:14:07;1.10;;;1.10;;
37383;SDS011;23258;49.718;11.082;2023-03-17T05:16:37;1.20;;;1.20;;
37383;SDS011;23258;49.718;11.082;2023-03-17T05:19:07;1.33;;;1.30;;
37383;SDS011;23258;49.718;11.082;2023-03-17T05:21:36;1.43;;;1.33;;
37383;SDS011;23258;49.718;11.082;2023-03-17T05:24:08;1.43;;;1.33;;
37383;SDS011;23258;49.718;11.082;2023-03-17T05:26:38;1.83;;;1.40;;
37383;SDS011;23258;49.718;11.082;2023-03-17T05:29:08;1.10;;;1.10;;
37383;SDS011;23258;49.718;11.082;2023-03-17T05:31:37;1.23;;;1.20;;
37383;SDS011;23258;49.718;11.082;2023-03-17T05:34:07;1.40;;;1.33;;
37383;SDS011;23258;49.718;11.082;2023-03-17T05:36:36;1.20;;;1.10;;
37383;SDS011;23258;49.718;11.082;2023-03-17T05:39:09;1.50;;;1.33;;
37383;SDS011;23258;49.718;11.082;2023-03-17T05:41:40;1.50;;;1.40;;
37383;SDS011;23258;49.718;11.082;2023-03-17T05:44:09;1.93;;;1.27;;
37383;SDS011;23258;49.718;11.082;2023-03-17T05:46:39;1.63;;;1.53;;
37383;SDS011;23258;49.718;11.082;2023-03-17T05:49:09;1.50;;;1.40;;
37383;SDS011;23258;49.718;11.082;2023-03-17T05:51:38;1.67;;;1.30;;
37383;SDS011;23258;49.718;11.082;2023-03-17T05:54:10;1.07;;;1.07;;
37383;SDS011;23258;49.718;11.082;2023-03-17T05:56:40;1.07;;;1.07;;
37383;SDS011;23258;49.718;11.082;2023-03-17T05:59:09;1.90;;;1.80;;
37383;SDS011;23258;49.718;11.082;2023-03-17T06:01:41;2.87;;;1.50;;
37383;SDS011;23258;49.718;11.082;2023-03-17T06:04:10;1.23;;;1.23;;
37383;SDS011;23258;49.718;11.082;2023-03-17T06:06:40;1.60;;;1.53;;
37383;SDS011;23258;49.718;11.082;2023-03-17T06:09:12;1.63;;;1.53;;
37383;SDS011;23258;49.718;11.082;2023-03-17T06:11:41;1.47;;;1.37;;
37383;SDS011;23258;49.718;11.082;2023-03-17T06:14:11;1.30;;;1.30;;
37383;SDS011;23258;49.718;11.082;2023-03-17T06:16:41;2.30;;;1.70;;
37383;SDS011;23258;49.718;11.082;2023-03-17T06:19:10;1.70;;;1.60;;
37383;SDS011;23258;49.718;11.082;2023-03-17T06:21:40;1.80;;;1.70;;
37383;SDS011;23258;49.718;11.082;2023-03-17T06:24:12;1.83;;;1.67;;
37383;SDS011;23258;49.718;11.082;2023-03-17T06:26:42;1.77;;;1.40;;
37383;SDS011;23258;49.718;11.082;2023-03-17T06:29:12;1.73;;;1.63;;
37383;SDS011;23258;49.718;11.082;2023-03-17T06:31:41;1.40;;;1.30;;
37383;SDS011;23258;49.718;11.082;2023-03-17T06:34:16;2.23;;;1.50;;
37383;SDS011;23258;49.718;11.082;2023-03-17T06:36:46;1.40;;;1.30;;
37383;SDS011;23258;49.718;11.082;2023-03-17T06:39:18;2.03;;;1.63;;
37383;SDS011;23258;49.718;11.082;2023-03-17T06:41:47;1.20;;;1.20;;
37383;SDS011;23258;49.718;11.082;2023-03-17T06:44:17;1.98;;;1.50;;
37383;SDS011;23258;49.718;11.082;2023-03-17T06:46:47;2.22;;;1.60;;
37383;SDS011;23258;49.718;11.082;2023-03-17T06:49:16;1.48;;;1.40;;
37383;SDS011;23258;49.718;11.082;2023-03-17T06:51:46;2.35;;;1.50;;
37383;SDS011;23258;49.718;11.082;2023-03-17T06:54:18;1.23;;;1.23;;
37383;SDS011;23258;49.718;11.082;2023-03-17T06:56:50;1.40;;;1.33;;
37383;SDS011;23258;49.718;11.082;2023-03-17T06:59:20;2.00;;;1.50;;
37383;SDS011;23258;49.718;11.082;2023-03-17T07:01:50;1.20;;;1.13;;
37383;SDS011;23258;49.718;11.082;2023-03-17T07:04:20;3.20;;;1.35;;
37383;SDS011;23258;49.718;11.082;2023-03-17T07:06:49;1.67;;;1.58;;
37383;SDS011;23258;49.718;11.082;2023-03-17T07:09:22;1.77;;;1.50;;
37383;SDS011;23258;49.718;11.082;2023-03-17T07:11:52;1.98;;;1.88;;
37383;SDS011;23258;49.718;11.082;2023-03-17T07:14:21;1.40;;;1.30;;
37383;SDS011;23258;49.718;11.082;2023-03-17T07:16:51;1.80;;;1.20;;
37383;SDS011;23258;49.718;11.082;2023-03-17T07:19:21;1.52;;;1.42;;
37383;SDS011;23258;49.718;11.082;2023-03-17T07:21:50;2.42;;;2.22;;
37383;SDS011;23258;49.718;11.082;2023-03-17T07:24:24;4.75;;;1.88;;
37383;SDS011;23258;49.718;11.082;2023-03-17T07:26:54;1.60;;;1.50;;
37383;SDS011;23258;49.718;11.082;2023-03-17T07:29:23;2.38;;;1.95;;
37383;SDS011;23258;49.718;11.082;2023-03-17T07:31:54;1.95;;;1.85;;
37383;SDS011;23258;49.718;11.082;2023-03-17T07:34:24;1.38;;;1.27;;
37383;SDS011;23258;49.718;11.082;2023-03-17T07:36:54;1.10;;;1.10;;
37383;SDS011;23258;49.718;11.082;2023-03-17T07:39:26;1.52;;;1.42;;
37383;SDS011;23258;49.718;11.082;2023-03-17T07:41:56;1.38;;;1.27;;
37383;SDS011;23258;49.718;11.082;2023-03-17T07:44:25;1.58;;;1.48;;
37383;SDS011;23258;49.718;11.082;2023-03-17T07:46:56;1.67;;;1.58;;
37383;SDS011;23258;49.718;11.082;2023-03-17T07:49:25;1.30;;;1.20;;
37383;SDS011;23258;49.718;11.082;2023-03-17T07:52:07;1.63;;;1.52;;
37383;SDS011;23258;49.718;11.082;2023-03-17T07:54:39;1.40;;;1.30;;
37383;SDS011;23258;49.718;11.082;2023-03-17T07:57:10;1.13;;;1.13;;
37383;SDS011;23258;49.718;11.082;2023-03-17T07:59:42;1.98;;;1.88;;
37383;SDS011;23258;49.718;11.082;2023-03-17T08:02:13;1.73;;;1.63;;
37383;SDS011;23258;49.718;11.082;2023-03-17T08:04:43;1.33;;;1.23;;
37383;SDS011;23258;49.718;11.082;2023-03-17T08:07:12;1.30;;;1.30;;
37383;SDS011;23258;49.718;11.082;2023-03-17T08:09:45;1.30;;;1.23;;
37383;SDS011;23258;49.718;11.082;2023-03-17T08:12:15;1.65;;;1.23;;
37383;SDS011;23258;49.718;11.082;2023-03-17T08:14:45;2.58;;;1.80;;
37383;SDS011;23258;49.718;11.082;2023-03-17T08:17:15;0.88;;;0.88;;
37383;SDS011;23258;49.718;11.082;2023-03-17T08:19:45;1.58;;;1.48;;
37383;SDS011;23258;49.718;11.082;2023-03-17T08:22:14;1.10;;;1.10;;
37383;SDS011;23258;49.718;11.082;2023-03-17T08:24:47;2.42;;;1.27;;
37383;SDS011;23258;49.718;11.082;2023-03-17T08:27:17;0.88;;;0.88;;
37383;SDS011;23258;49.718;11.082;2023-03-17T08:29:48;1.20;;;1.10;;
37383;SDS011;23258;49.718;11.082;2023-03-17T08:32:18;1.88;;;1.23;;
37383;SDS011;23258;49.718;11.082;2023-03-17T08:34:51;0.95;;;0.95;;
37383;SDS011;23258;49.718;11.082;2023-03-17T08:37:20;1.80;;;1.70;;
37383;SDS011;23258;49.718;11.082;2023-03-17T08:39:52;1.50;;;1.40;;
37383;SDS011;23258;49.718;11.082;2023-03-17T08:42:22;1.00;;;1.00;;
37383;SDS011;23258;49.718;11.082;2023-03-17T08:44:52;0.73;;;0.73;;
37383;SDS011;23258;49.718;11.082;2023-03-17T08:47:22;1.25;;;1.20;;
37383;SDS011;23258;49.718;11.082;2023-03-17T08:49:51;1.33;;;1.15;;
37383;SDS011;23258;49.718;11.082;2023-03-17T08:52:22;1.10;;;1.02;;
37383;SDS011;23258;49.718;11.082;2023-03-17T08:54:54;1.08;;;1.08;;
37383;SDS011;23258;49.718;11.082;2023-03-17T08:57:24;0.90;;;0.90;;
37383;SDS011;23258;49.718;11.082;2023-03-17T08:59:53;1.00;;;1.00;;
37383;SDS011;23258;49.718;11.082;2023-03-17T09:02:23;2.35;;;1.20;;
37383;SDS011;23258;49.718;11.082;2023-03-17T09:04:52;1.23;;;1.13;;
37383;SDS011;23258;49.718;11.082;2023-03-17T09:07:22;0.90;;;0.90;;
37383;SDS011;23258;49.718;11.082;2023-03-17T09:09:54;1.83;;;0.98;;
37383;SDS011;23258;49.718;11.082;2023-03-17T09:12:24;1.30;;;1.20;;
37383;SDS011;23258;49.718;11.082;2023-03-17T09:14:53;1.73;;;1.25;;
37383;SDS011;23258;49.718;11.082;2023-03-17T09:17:23;1.05;;;1.05;;
37383;SDS011;23258;49.718;11.082;2023-03-17T09:19:52;0.82;;;0.82;;
37383;SDS011;23258;49.718;11.082;2023-03-17T09:22:22;1.33;;;0.95;;
37383;SDS011;23258;49.718;11.082;2023-03-17T09:24:55;1.02;;;1.02;;
37383;SDS011;23258;49.718;11.082;2023-03-17T09:27:24;1.98;;;1.02;;
37383;SDS011;23258;49.718;11.082;2023-03-17T09:29:54;1.17;;;0.85;;
37383;SDS011;23258;49.718;11.082;2023-03-17T09:32:24;1.70;;;1.30;;
37383;SDS011;23258;49.718;11.082;2023-03-17T09:34:53;1.15;;;1.08;;
37383;SDS011;23258;49.718;11.082;2023-03-17T09:37:23;0.88;;;0.88;;
37383;SDS011;23258;49.718;11.082;2023-03-17T09:39:55;1.23;;;1.00;;
37383;SDS011;23258;49.718;11.082;2023-03-17T09:42:32;0.80;;;0.80;;
37383;SDS011;23258;49.718;11.082;2023-03-17T09:45:09;1.40;;;1.10;;
37383;SDS011;23258;49.718;11.082;2023-03-17T09:47:46;1.27;;;1.17;;
37383;SDS011;23258;49.718;11.082;2023-03-17T09:50:18;0.73;;;0.73;;
37383;SDS011;23258;49.718;11.082;2023-03-17T09:52:50;1.15;;;1.02;;
37383;SDS011;23258;49.718;11.082;2023-03-17T09:55:25;1.20;;;1.08;;
37383;SDS011;23258;49.718;11.082;2023-03-17T09:57:56;1.60;;;1.25;;
37383;SDS011;23258;49.718;11.082;2023-03-17T10:00:29;1.98;;;1.30;;
37383;SDS011;23258;49.718;11.082;2023-03-17T10:02:58;0.80;;;0.80;;
37383;SDS011;23258;49.718;11.082;2023-03-17T10:05:30;1.75;;;1.23;;
37383;SDS011;23258;49.718;11.082;2023-03-17T10:08:03;0.80;;;0.80;;
37383;SDS011;23258;49.718;11.082;2023-03-17T10:10:55;0.98;;;0.98;;
37383;SDS011;23258;49.718;11.082;2023-03-17T10:13:32;2.35;;;1.30;;
37383;SDS011;23258;49.718;11.082;2023-03-17T10:16:06;1.08;;;1.05;;
37383;SDS011;23258;49.718;11.082;2023-03-17T10:18:38;0.90;;;0.85;;
37383;SDS011;23258;49.718;11.082;2023-03-17T10:21:10;0.80;;;0.80;;
37383;SDS011;23258;49.718;11.082;2023-03-17T10:23:41;3.42;;;1.08;;
37383;SDS011;23258;49.718;11.082;2023-03-17T10:26:16;1.08;;;1.08;;
37383;SDS011;23258;49.718;11.082;2023-03-17T10:28:49;1.02;;;0.93;;
37383;SDS011;23258;49.718;11.082;2023-03-17T10:31:19;0.70;;;0.70;;
37383;SDS011;23258;49.718;11.082;2023-03-17T10:33:55;0.90;;;0.90;;
37383;SDS011;23258;49.718;11.082;2023-03-17T10:36:33;1.00;;;1.00;;
37383;SDS011;23258;49.718;11.082;2023-03-17T10:39:04;1.15;;;1.05;;
37383;SDS011;23258;49.718;11.082;2023-03-17T10:41:38;0.63;;;0.63;;
37383;SDS011;23258;49.718;11.082;2023-03-17T10:44:08;1.00;;;0.90;;
37383;SDS011;23258;49.718;11.082;2023-03-17T10:46:38;1.33;;;1.05;;
37383;SDS011;23258;49.718;11.082;2023-03-17T10:49:15;0.88;;;0.88;;
37383;SDS011;23258;49.718;11.082;2023-03-17T10:51:48;1.08;;;1.08;;
37383;SDS011;23258;49.718;11.082;2023-03-17T10:54:19;0.95;;;0.95;;
37383;SDS011;23258;49.718;11.082;2023-03-17T10:56:57;0.60;;;0.60;;
37383;SDS011;23258;49.718;11.082;2023-03-17T10:59:28;1.45;;;1.08;;
37383;SDS011;23258;49.718;11.082;2023-03-17T11:01:59;1.95;;;1.23;;
37383;SDS011;23258;49.718;11.082;2023-03-17T11:04:31;1.08;;;1.08;;
37383;SDS011;23258;49.718;11.082;2023-03-17T11:07:04;1.60;;;1.20;;
37383;SDS011;23258;49.718;11.082;2023-03-17T11:09:36;2.45;;;1.20;;
37383;SDS011;23258;49.718;11.082;2023-03-17T11:12:17;0.98;;;0.88;;
37383;SDS011;23258;49.718;11.082;2023-03-17T11:14:47;1.23;;;1.10;;
37383;SDS011;23258;49.718;11.082;2023-03-17T11:17:17;1.15;;;1.02;;
37383;SDS011;23258;49.718;11.082;2023-03-17T11:19:49;1.92;;;1.20;;
37383;SDS011;23258;49.718;11.082;2023-03-17T11:22:21;0.90;;;0.90;;
37383;SDS011;23258;49.718;11.082;2023-03-17T11:24:56;1.13;;;1.00;;
37383;SDS011;23258;49.718;11.082;2023-03-17T11:27:31;1.05;;;1.05;;
37383;SDS011;23258;49.718;11.082;2023-03-17T11:30:07;0.80;;;0.80;;
37383;SDS011;23258;49.718;11.082;2023-03-17T11:32:42;1.02;;;0.93;;
37383;SDS011;23258;49.718;11.082;2023-03-17T11:38:00;1.13;;;1.13;;
37383;SDS011;23258;49.718;11.082;2023-03-17T11:40:31;1.33;;;0.93;;
37383;SDS011;23258;49.718;11.082;2023-03-17T11:43:12;1.10;;;1.10;;
37383;SDS011;23258;49.718;11.082;2023-03-17T11:45:48;0.80;;;0.80;;
37383;SDS011;23258;49.718;11.082;2023-03-17T11:48:26;1.15;;;1.08;;
37383;SDS011;23258;49.718;11.082;2023-03-17T11:51:00;1.67;;;1.27;;
37383;SDS011;23258;49.718;11.082;2023-03-17T11:56:22;0.85;;;0.85;;
37383;SDS011;23258;49.718;11.082;2023-03-17T11:58:57;0.90;;;0.90;;
37383;SDS011;23258;49.718;11.082;2023-03-17T12:01:31;1.20;;;1.10;;
37383;SDS011;23258;49.718;11.082;2023-03-17T12:04:06;0.77;;;0.65;;
37383;SDS011;23258;49.718;11.082;2023-03-17T12:06:38;1.00;;;1.00;;
37383;SDS011;23258;49.718;11.082;2023-03-17T12:09:14;0.75;;;0.75;;
37383;SDS011;23258;49.718;11.082;2023-03-17T12:11:49;1.63;;;1.20;;
37383;SDS011;23258;49.718;11.082;2023-03-17T12:14:23;2.33;;;1.98;;
37383;SDS011;23258;49.718;11.082;2023-03-17T12:16:54;0.80;;;0.80;;
37383;SDS011;23258;49.718;11.082;2023-03-17T12:19:26;1.45;;;1.00;;
37383;SDS011;23258;49.718;11.082;2023-03-17T12:22:02;1.75;;;1.13;;
37383;SDS011;23258;49.718;11.082;2023-03-17T12:24:34;0.80;;;0.80;;
37383;SDS011;23258;49.718;11.082;2023-03-17T12:27:08;0.77;;;0.77;;
37383;SDS011;23258;49.718;11.082;2023-03-17T12:29:43;1.65;;;1.27;;
37383;SDS011;23258;49.718;11.082;2023-03-17T12:32:19;1.20;;;1.10;;
37383;SDS011;23258;49.718;11.082;2023-03-17T12:34:49;1.23;;;1.15;;
37383;SDS011;23258;49.718;11.082;2023-03-17T12:37:22;1.27;;;1.17;;
37383;SDS011;23258;49.718;11.082;2023-03-17T12:39:53;0.65;;;0.65;;
37383;SDS011;23258;49.718;11.082;2023-03-17T12:42:29;1.15;;;0.90;;
37383;SDS011;23258;49.718;11.082;2023-03-17T12:45:17;0.70;;;0.70;;
37383;SDS011;23258;49.718;11.082;2023-03-17T12:47:54;0.73;;;0.73;;
37383;SDS011;23258;49.718;11.082;2023-03-17T12:50:28;0.68;;;0.68;;
37383;SDS011;23258;49.718;11.082;2023-03-17T12:53:04;1.08;;;0.85;;
37383;SDS011;23258;49.718;11.082;2023-03-17T12:55:38;0.57;;;0.57;;
37383;SDS011;23258;49.718;11.082;2023-03-17T12:58:14;0.50;;;0.50;;
37383;SDS011;23258;49.718;11.082;2023-03-17T13:00:54;1.85;;;0.60;;
37383;SDS011;23258;49.718;11.082;2023-03-17T13:03:26;1.65;;;0.93;;
37383;SDS011;23258;49.718;11.082;2023-03-17T13:05:57;0.60;;;0.60;;
37383;SDS011;23258;49.718;11.082;2023-03-17T13:08:28;0.73;;;0.50;;
37383;SDS011;23258;49.718;11.082;2023-03-17T13:11:13;1.08;;;0.70;;
37383;SDS011;23258;49.718;11.082;2023-03-17T13:13:44;0.50;;;0.50;;
37383;SDS011;23258;49.718;11.082;2023-03-17T13:16:30;0.85;;;0.70;;
37383;SDS011;23258;49.718;11.082;2023-03-17T13:19:12;0.77;;;0.77;;
37383;SDS011;23258;49.718;11.082;2023-03-17T13:21:47;0.60;;;0.60;;
37383;SDS011;23258;49.718;11.082;2023-03-17T13:24:18;0.50;;;0.50;;
37383;SDS011;23258;49.718;11.082;2023-03-17T13:26:50;0.73;;;0.73;;
37383;SDS011;23258;49.718;11.082;2023-03-17T13:35:12;0.95;;;0.45;;
37383;SDS011;23258;49.718;11.082;2023-03-17T13:38:05;0.65;;;0.65;;
37383;SDS011;23258;49.718;11.082;2023-03-17T13:40:44;0.70;;;0.70;;
37383;SDS011;23258;49.718;11.082;2023-03-17T13:43:25;0.45;;;0.45;;
37383;SDS011;23258;49.718;11.082;2023-03-17T13:46:17;0.60;;;0.60;;
37383;SDS011;23258;49.718;11.082;2023-03-17T13:48:47;0.30;;;0.30;;
37383;SDS011;23258;49.718;11.082;2023-03-17T13:51:20;0.40;;;0.40;;
37383;SDS011;23258;49.718;11.082;2023-03-17T13:53:52;0.57;;;0.57;;
37383;SDS011;23258;49.718;11.082;2023-03-17T13:56:23;0.65;;;0.65;;
37383;SDS011;23258;49.718;11.082;2023-03-17T14:01:42;4.05;;;0.75;;
37383;SDS011;23258;49.718;11.082;2023-03-17T14:04:16;1.02;;;0.80;;
37383;SDS011;23258;49.718;11.082;2023-03-17T14:06:50;0.65;;;0.60;;
37383;SDS011;23258;49.718;11.082;2023-03-17T14:09:26;1.08;;;0.68;;
37383;SDS011;23258;49.718;11.082;2023-03-17T14:11:59;0.60;;;0.60;;
37383;SDS011;23258;49.718;11.082;2023-03-17T14:14:33;0.70;;;0.70;;
37383;SDS011;23258;49.718;11.082;2023-03-17T14:17:08;0.50;;;0.50;;
37383;SDS011;23258;49.718;11.082;2023-03-17T14:19:39;0.50;;;0.50;;
37383;SDS011;23258;49.718;11.082;2023-03-17T14:22:22;0.80;;;0.75;;
37383;SDS011;23258;49.718;11.082;2023-03-17T14:24:52;0.88;;;0.88;;
37383;SDS011;23258;49.718;11.082;2023-03-17T14:27:22;0.80;;;0.68;;
37383;SDS011;23258;49.718;11.082;2023-03-17T14:29:52;0.43;;;0.43;;
37383;SDS011;23258;49.718;11.082;2023-03-17T14:32:22;0.73;;;0.73;;
37383;SDS011;23258;49.718;11.082;2023-03-17T14:34:53;1.35;;;0.80;;
37383;SDS011;23258;49.718;11.082;2023-03-17T14:37:26;0.70;;;0.70;;
37383;SDS011;23258;49.718;11.082;2023-03-17T14:39:56;0.88;;;0.70;;
37383;SDS011;23258;49.718;11.082;2023-03-17T14:42:27;1.15;;;1.05;;
37383;SDS011;23258;49.718;11.082;2023-03-17T14:45:00;0.60;;;0.60;;
37383;SDS011;23258;49.718;11.082;2023-03-17T14:47:31;1.05;;;0.95;;
37383;SDS011;23258;49.718;11.082;2023-03-17T14:50:05;0.82;;;0.82;;
37383;SDS011;23258;49.718;11.082;2023-03-17T14:52:42;0.60;;;0.60;;
37383;SDS011;23258;49.718;11.082;2023-03-17T14:55:12;0.80;;;0.80;;
37383;SDS011;23258;49.718;11.082;2023-03-17T14:57:46;0.73;;;0.70;;
37383;SDS011;23258;49.718;11.082;2023-03-17T15:00:25;0.68;;;0.68;;
37383;SDS011;23258;49.718;11.082;2023-03-17T15:02:56;0.65;;;0.65;;
37383;SDS011;23258;49.718;11.082;2023-03-17T15:05:28;0.80;;;0.80;;
37383;SDS011;23258;49.718;11.082;2023-03-17T15:08:01;0.63;;;0.63;;
37383;SDS011;23258;49.718;11.082;2023-03-17T15:10:38;0.50;;;0.50;;
37383;SDS011;23258;49.718;11.082;2023-03-17T15:13:10;1.02;;;0.88;;
37383;SDS011;23258;49.718;11.082;2023-03-17T15:15:40;0.75;;;0.75;;
37383;SDS011;23258;49.718;11.082;2023-03-17T15:18:10;0.70;;;0.70;;
37383;SDS011;23258;49.718;11.082;2023-03-17T15:20:41;1.10;;;0.75;;